sensor_id;sensor_type;location;lat;lon;timestamp;P1;durP1;ratioP1;P2;durP2;ratioP2
26686;SDS011;14298;50.900;4.648;2024-03-07T00:02:24;4.23;;;2.83;;
26686;SDS011;14298;50.900;4.648;2024-03-07T00:04:52;2.90;;;2.70;;
26686;SDS011;14298;50.900;4.648;2024-03-07T00:07:20;2.90;;;2.70;;
26686;SDS011;14298;50.900;4.648;2024-03-07T00:09:48;3.00;;;2.80;;
26686;SDS011;14298;50.900;4.648;2024-03-07T00:12:18;4.33;;;4.03;;
26686;SDS011;14298;50.900;4.648;2024-03-07T00:14:46;5.20;;;3.13;;
26686;SDS011;14298;50.900;4.648;2024-03-07T00:17:14;6.57;;;4.90;;
26686;SDS011;14298;50.900;4.648;2024-03-07T00:19:42;5.43;;;3.80;;
26686;SDS011;14298;50.900;4.648;2024-03-07T00:22:10;5.77;;;4.43;;
26686;SDS011;14298;50.900;4.648;2024-03-07T00:24:38;3.77;;;3.50;;
26686;SDS011;14298;50.900;4.648;2024-03-07T00:27:07;4.00;;;3.70;;
26686;SDS011;14298;50.900;4.648;2024-03-07T00:29:35;4.33;;;3.93;;
26686;SDS011;14298;50.900;4.648;2024-03-07T00:32:04;4.63;;;4.10;;
26686;SDS011;14298;50.900;4.648;2024-03-07T00:34:32;9.17;;;5.50;;
26686;SDS011;14298;50.900;4.648;2024-03-07T00:37:00;6.40;;;3.70;;
26686;SDS011;14298;50.900;4.648;2024-03-07T00:39:29;5.23;;;4.70;;
26686;SDS011;14298;50.900;4.648;2024-03-07T00:44:45;4.17;;;3.87;;
26686;SDS011;14298;50.900;4.648;2024-03-07T00:47:13;4.07;;;3.77;;
26686;SDS011;14298;50.900;4.648;2024-03-07T00:49:41;4.57;;;4.17;;
26686;SDS011;14298;50.900;4.648;2024-03-07T00:52:09;5.57;;;4.50;;
26686;SDS011;14298;50.900;4.648;2024-03-07T00:54:37;4.27;;;3.47;;
26686;SDS011;14298;50.900;4.648;2024-03-07T00:57:06;6.67;;;4.53;;
26686;SDS011;14298;50.900;4.648;2024-03-07T00:59:34;6.03;;;5.43;;
26686;SDS011;14298;50.900;4.648;2024-03-07T01:02:02;6.20;;;5.63;;
26686;SDS011;14298;50.900;4.648;2024-03-07T01:04:31;6.87;;;5.30;;
26686;SDS011;14298;50.900;4.648;2024-03-07T01:07:00;4.80;;;4.40;;
26686;SDS011;14298;50.900;4.648;2024-03-07T01:09:28;7.70;;;6.17;;
26686;SDS011;14298;50.900;4.648;2024-03-07T01:11:56;8.60;;;6.47;;
26686;SDS011;14298;50.900;4.648;2024-03-07T01:14:26;10.23;;;6.40;;
26686;SDS011;14298;50.900;4.648;2024-03-07T01:16:54;14.67;;;5.77;;
26686;SDS011;14298;50.900;4.648;2024-03-07T01:19:23;6.63;;;6.00;;
26686;SDS011;14298;50.900;4.648;2024-03-07T01:24:38;5.60;;;5.07;;
26686;SDS011;14298;50.900;4.648;2024-03-07T01:27:06;5.67;;;4.97;;
26686;SDS011;14298;50.900;4.648;2024-03-07T01:29:34;5.43;;;5.03;;
26686;SDS011;14298;50.900;4.648;2024-03-07T01:32:02;7.37;;;6.20;;
26686;SDS011;14298;50.900;4.648;2024-03-07T01:34:30;6.30;;;5.80;;
26686;SDS011;14298;50.900;4.648;2024-03-07T01:36:58;8.70;;;6.43;;
26686;SDS011;14298;50.900;4.648;2024-03-07T01:39:26;6.40;;;5.80;;
26686;SDS011;14298;50.900;4.648;2024-03-07T01:41:55;6.57;;;6.00;;
26686;SDS011;14298;50.900;4.648;2024-03-07T01:44:23;9.33;;;6.43;;
26686;SDS011;14298;50.900;4.648;2024-03-07T01:46:57;6.93;;;5.43;;
26686;SDS011;14298;50.900;4.648;2024-03-07T01:49:21;5.83;;;4.77;;
26686;SDS011;14298;50.900;4.648;2024-03-07T01:51:49;6.50;;;5.90;;
26686;SDS011;14298;50.900;4.648;2024-03-07T01:54:17;6.80;;;6.10;;
26686;SDS011;14298;50.900;4.648;2024-03-07T01:56:45;7.10;;;6.40;;
26686;SDS011;14298;50.900;4.648;2024-03-07T01:59:13;8.73;;;6.43;;
26686;SDS011;14298;50.900;4.648;2024-03-07T02:01:41;16.53;;;6.40;;
26686;SDS011;14298;50.900;4.648;2024-03-07T02:04:10;7.13;;;4.77;;
26686;SDS011;14298;50.900;4.648;2024-03-07T02:06:38;7.43;;;6.60;;
26686;SDS011;14298;50.900;4.648;2024-03-07T02:09:06;6.40;;;5.33;;
26686;SDS011;14298;50.900;4.648;2024-03-07T02:11:34;9.33;;;5.20;;
26686;SDS011;14298;50.900;4.648;2024-03-07T02:14:02;6.90;;;6.17;;
26686;SDS011;14298;50.900;4.648;2024-03-07T02:16:30;9.47;;;6.70;;
26686;SDS011;14298;50.900;4.648;2024-03-07T02:18:58;11.37;;;6.00;;
26686;SDS011;14298;50.900;4.648;2024-03-07T02:21:26;8.50;;;5.27;;
26686;SDS011;14298;50.900;4.648;2024-03-07T02:23:54;6.30;;;5.70;;
26686;SDS011;14298;50.900;4.648;2024-03-07T02:26:23;10.27;;;5.73;;
26686;SDS011;14298;50.900;4.648;2024-03-07T02:28:51;9.63;;;6.07;;
26686;SDS011;14298;50.900;4.648;2024-03-07T02:31:19;9.63;;;6.03;;
26686;SDS011;14298;50.900;4.648;2024-03-07T02:33:47;7.40;;;6.00;;
26686;SDS011;14298;50.900;4.648;2024-03-07T02:36:15;10.17;;;6.07;;
26686;SDS011;14298;50.900;4.648;2024-03-07T02:38:43;7.00;;;6.37;;
26686;SDS011;14298;50.900;4.648;2024-03-07T02:41:11;7.10;;;5.90;;
26686;SDS011;14298;50.900;4.648;2024-03-07T02:43:40;5.60;;;4.83;;
26686;SDS011;14298;50.900;4.648;2024-03-07T02:46:07;6.20;;;5.60;;
26686;SDS011;14298;50.900;4.648;2024-03-07T02:48:37;10.87;;;7.27;;
26686;SDS011;14298;50.900;4.648;2024-03-07T02:51:06;7.60;;;6.90;;
26686;SDS011;14298;50.900;4.648;2024-03-07T02:53:34;15.70;;;7.30;;
26686;SDS011;14298;50.900;4.648;2024-03-07T02:56:02;7.30;;;6.60;;
26686;SDS011;14298;50.900;4.648;2024-03-07T02:58:31;9.63;;;7.90;;
26686;SDS011;14298;50.900;4.648;2024-03-07T03:00:59;10.13;;;9.23;;
26686;SDS011;14298;50.900;4.648;2024-03-07T03:03:27;8.17;;;6.60;;
26686;SDS011;14298;50.900;4.648;2024-03-07T03:05:57;9.23;;;8.30;;
26686;SDS011;14298;50.900;4.648;2024-03-07T03:08:25;11.37;;;8.17;;
26686;SDS011;14298;50.900;4.648;2024-03-07T03:10:55;11.33;;;8.13;;
26686;SDS011;14298;50.900;4.648;2024-03-07T03:13:24;8.20;;;7.17;;
26686;SDS011;14298;50.900;4.648;2024-03-07T03:15:54;8.13;;;6.43;;
26686;SDS011;14298;50.900;4.648;2024-03-07T03:18:23;6.73;;;5.93;;
26686;SDS011;14298;50.900;4.648;2024-03-07T03:20:51;16.90;;;9.43;;
26686;SDS011;14298;50.900;4.648;2024-03-07T03:23:19;7.67;;;7.00;;
26686;SDS011;14298;50.900;4.648;2024-03-07T03:25:47;8.77;;;7.20;;
26686;SDS011;14298;50.900;4.648;2024-03-07T03:28:16;6.00;;;5.37;;
26686;SDS011;14298;50.900;4.648;2024-03-07T03:30:46;8.43;;;6.77;;
26686;SDS011;14298;50.900;4.648;2024-03-07T03:33:14;9.20;;;8.33;;
26686;SDS011;14298;50.900;4.648;2024-03-07T03:35:42;7.93;;;6.77;;
26686;SDS011;14298;50.900;4.648;2024-03-07T03:38:10;9.37;;;7.27;;
26686;SDS011;14298;50.900;4.648;2024-03-07T03:40:38;8.30;;;7.37;;
26686;SDS011;14298;50.900;4.648;2024-03-07T03:43:06;8.07;;;7.30;;
26686;SDS011;14298;50.900;4.648;2024-03-07T03:45:34;10.87;;;9.43;;
26686;SDS011;14298;50.900;4.648;2024-03-07T03:48:02;15.93;;;8.93;;
26686;SDS011;14298;50.900;4.648;2024-03-07T03:50:30;10.67;;;7.43;;
26686;SDS011;14298;50.900;4.648;2024-03-07T03:52:58;7.63;;;6.97;;
26686;SDS011;14298;50.900;4.648;2024-03-07T03:55:28;9.90;;;8.83;;
26686;SDS011;14298;50.900;4.648;2024-03-07T03:57:56;13.97;;;8.10;;
26686;SDS011;14298;50.900;4.648;2024-03-07T04:00:24;7.93;;;6.27;;
26686;SDS011;14298;50.900;4.648;2024-03-07T04:02:52;10.50;;;7.43;;
26686;SDS011;14298;50.900;4.648;2024-03-07T04:05:20;10.70;;;9.10;;
26686;SDS011;14298;50.900;4.648;2024-03-07T04:07:49;6.83;;;5.97;;
26686;SDS011;14298;50.900;4.648;2024-03-07T04:10:17;8.70;;;6.13;;
26686;SDS011;14298;50.900;4.648;2024-03-07T04:12:45;8.40;;;7.63;;
26686;SDS011;14298;50.900;4.648;2024-03-07T04:15:13;9.70;;;7.43;;
26686;SDS011;14298;50.900;4.648;2024-03-07T04:17:43;16.37;;;8.40;;
26686;SDS011;14298;50.900;4.648;2024-03-07T04:20:13;9.47;;;8.57;;
26686;SDS011;14298;50.900;4.648;2024-03-07T04:22:42;11.23;;;9.07;;
26686;SDS011;14298;50.900;4.648;2024-03-07T04:25:10;8.33;;;7.23;;
26686;SDS011;14298;50.900;4.648;2024-03-07T04:27:39;10.87;;;8.77;;
26686;SDS011;14298;50.900;4.648;2024-03-07T04:30:07;8.00;;;7.17;;
26686;SDS011;14298;50.900;4.648;2024-03-07T04:32:41;9.77;;;7.67;;
26686;SDS011;14298;50.900;4.648;2024-03-07T04:35:09;8.23;;;7.43;;
26686;SDS011;14298;50.900;4.648;2024-03-07T04:37:37;8.53;;;7.73;;
26686;SDS011;14298;50.900;4.648;2024-03-07T04:40:07;10.67;;;8.53;;
26686;SDS011;14298;50.900;4.648;2024-03-07T04:42:44;12.90;;;8.47;;
26686;SDS011;14298;50.900;4.648;2024-03-07T04:45:13;10.67;;;8.17;;
26686;SDS011;14298;50.900;4.648;2024-03-07T04:47:41;15.23;;;6.87;;
26686;SDS011;14298;50.900;4.648;2024-03-07T04:50:11;10.43;;;7.30;;
26686;SDS011;14298;50.900;4.648;2024-03-07T04:52:40;9.27;;;8.43;;
26686;SDS011;14298;50.900;4.648;2024-03-07T04:55:08;12.17;;;9.53;;
26686;SDS011;14298;50.900;4.648;2024-03-07T04:57:38;8.30;;;7.47;;
26686;SDS011;14298;50.900;4.648;2024-03-07T05:00:08;13.47;;;9.30;;
26686;SDS011;14298;50.900;4.648;2024-03-07T05:02:41;17.77;;;9.97;;
26686;SDS011;14298;50.900;4.648;2024-03-07T05:05:09;12.37;;;9.07;;
26686;SDS011;14298;50.900;4.648;2024-03-07T05:07:37;14.07;;;8.67;;
26686;SDS011;14298;50.900;4.648;2024-03-07T05:10:05;10.57;;;7.37;;
26686;SDS011;14298;50.900;4.648;2024-03-07T05:12:34;9.77;;;8.60;;
26686;SDS011;14298;50.900;4.648;2024-03-07T05:15:04;12.00;;;8.77;;
26686;SDS011;14298;50.900;4.648;2024-03-07T05:17:33;9.97;;;8.30;;
26686;SDS011;14298;50.900;4.648;2024-03-07T05:20:02;9.63;;;7.27;;
26686;SDS011;14298;50.900;4.648;2024-03-07T05:22:32;10.50;;;8.63;;
26686;SDS011;14298;50.900;4.648;2024-03-07T05:25:00;11.40;;;9.80;;
26686;SDS011;14298;50.900;4.648;2024-03-07T05:27:28;11.27;;;9.73;;
26686;SDS011;14298;50.900;4.648;2024-03-07T05:29:57;11.37;;;9.13;;
26686;SDS011;14298;50.900;4.648;2024-03-07T05:32:25;17.60;;;9.80;;
26686;SDS011;14298;50.900;4.648;2024-03-07T05:34:54;13.70;;;10.73;;
26686;SDS011;14298;50.900;4.648;2024-03-07T05:37:22;15.37;;;11.93;;
26686;SDS011;14298;50.900;4.648;2024-03-07T05:39:53;18.80;;;15.60;;
26686;SDS011;14298;50.900;4.648;2024-03-07T05:42:21;18.80;;;11.73;;
26686;SDS011;14298;50.900;4.648;2024-03-07T05:44:49;19.60;;;12.07;;
26686;SDS011;14298;50.900;4.648;2024-03-07T05:47:16;22.33;;;11.70;;
26686;SDS011;14298;50.900;4.648;2024-03-07T05:49:44;18.60;;;13.50;;
26686;SDS011;14298;50.900;4.648;2024-03-07T05:52:12;17.33;;;10.90;;
26686;SDS011;14298;50.900;4.648;2024-03-07T05:54:40;22.03;;;13.33;;
26686;SDS011;14298;50.900;4.648;2024-03-07T05:57:10;49.63;;;13.60;;
26686;SDS011;14298;50.900;4.648;2024-03-07T05:59:38;27.87;;;14.13;;
26686;SDS011;14298;50.900;4.648;2024-03-07T06:02:06;22.77;;;11.50;;
26686;SDS011;14298;50.900;4.648;2024-03-07T06:04:34;26.03;;;13.40;;
26686;SDS011;14298;50.900;4.648;2024-03-07T06:07:02;17.77;;;14.23;;
26686;SDS011;14298;50.900;4.648;2024-03-07T06:09:30;31.70;;;12.87;;
26686;SDS011;14298;50.900;4.648;2024-03-07T06:11:58;30.53;;;15.23;;
26686;SDS011;14298;50.900;4.648;2024-03-07T06:14:26;30.90;;;15.37;;
26686;SDS011;14298;50.900;4.648;2024-03-07T06:16:54;23.53;;;13.93;;
26686;SDS011;14298;50.900;4.648;2024-03-07T06:19:24;14.97;;;10.57;;
26686;SDS011;14298;50.900;4.648;2024-03-07T06:21:52;59.43;;;11.97;;
26686;SDS011;14298;50.900;4.648;2024-03-07T06:24:21;16.17;;;11.10;;
26686;SDS011;14298;50.900;4.648;2024-03-07T06:26:50;29.37;;;14.00;;
26686;SDS011;14298;50.900;4.648;2024-03-07T06:29:19;30.80;;;16.30;;
26686;SDS011;14298;50.900;4.648;2024-03-07T06:31:47;52.07;;;13.03;;
26686;SDS011;14298;50.900;4.648;2024-03-07T06:34:17;18.47;;;12.87;;
26686;SDS011;14298;50.900;4.648;2024-03-07T06:36:45;55.57;;;14.97;;
26686;SDS011;14298;50.900;4.648;2024-03-07T06:39:13;22.93;;;13.10;;
26686;SDS011;14298;50.900;4.648;2024-03-07T06:41:41;26.73;;;14.93;;
26686;SDS011;14298;50.900;4.648;2024-03-07T06:44:09;16.60;;;14.17;;
26686;SDS011;14298;50.900;4.648;2024-03-07T06:46:37;16.43;;;13.57;;
26686;SDS011;14298;50.900;4.648;2024-03-07T06:49:05;16.03;;;12.33;;
26686;SDS011;14298;50.900;4.648;2024-03-07T06:51:35;28.43;;;15.10;;
26686;SDS011;14298;50.900;4.648;2024-03-07T06:54:03;21.50;;;16.87;;
26686;SDS011;14298;50.900;4.648;2024-03-07T06:56:32;23.70;;;13.17;;
26686;SDS011;14298;50.900;4.648;2024-03-07T06:59:00;19.63;;;13.83;;
26686;SDS011;14298;50.900;4.648;2024-03-07T07:01:30;24.77;;;12.93;;
26686;SDS011;14298;50.900;4.648;2024-03-07T07:03:58;23.77;;;12.83;;
26686;SDS011;14298;50.900;4.648;2024-03-07T07:06:28;30.03;;;12.73;;
26686;SDS011;14298;50.900;4.648;2024-03-07T07:08:56;59.90;;;13.70;;
26686;SDS011;14298;50.900;4.648;2024-03-07T07:11:25;19.40;;;13.77;;
26686;SDS011;14298;50.900;4.648;2024-03-07T07:13:54;21.43;;;15.43;;
26686;SDS011;14298;50.900;4.648;2024-03-07T07:16:22;27.20;;;16.00;;
26686;SDS011;14298;50.900;4.648;2024-03-07T07:18:50;26.57;;;14.67;;
26686;SDS011;14298;50.900;4.648;2024-03-07T07:21:19;22.20;;;14.37;;
26686;SDS011;14298;50.900;4.648;2024-03-07T07:23:48;21.83;;;14.53;;
26686;SDS011;14298;50.900;4.648;2024-03-07T07:26:16;28.07;;;16.00;;
26686;SDS011;14298;50.900;4.648;2024-03-07T07:28:44;32.80;;;15.40;;
26686;SDS011;14298;50.900;4.648;2024-03-07T07:31:12;27.50;;;14.53;;
26686;SDS011;14298;50.900;4.648;2024-03-07T07:33:40;13.53;;;12.13;;
26686;SDS011;14298;50.900;4.648;2024-03-07T07:36:08;22.63;;;13.13;;
26686;SDS011;14298;50.900;4.648;2024-03-07T07:38:37;26.37;;;13.23;;
26686;SDS011;14298;50.900;4.648;2024-03-07T07:41:05;21.83;;;13.90;;
26686;SDS011;14298;50.900;4.648;2024-03-07T07:43:33;26.10;;;16.83;;
26686;SDS011;14298;50.900;4.648;2024-03-07T07:46:01;17.07;;;11.23;;
26686;SDS011;14298;50.900;4.648;2024-03-07T07:48:29;18.23;;;11.53;;
26686;SDS011;14298;50.900;4.648;2024-03-07T07:50:57;25.40;;;16.27;;
26686;SDS011;14298;50.900;4.648;2024-03-07T07:53:26;24.80;;;14.80;;
26686;SDS011;14298;50.900;4.648;2024-03-07T07:55:54;14.57;;;12.07;;
26686;SDS011;14298;50.900;4.648;2024-03-07T07:58:22;25.00;;;13.90;;
26686;SDS011;14298;50.900;4.648;2024-03-07T08:00:50;22.93;;;13.93;;
26686;SDS011;14298;50.900;4.648;2024-03-07T08:03:18;24.60;;;12.37;;
26686;SDS011;14298;50.900;4.648;2024-03-07T08:05:48;22.53;;;14.90;;
26686;SDS011;14298;50.900;4.648;2024-03-07T08:08:16;16.87;;;13.43;;
26686;SDS011;14298;50.900;4.648;2024-03-07T08:10:45;23.90;;;13.90;;
26686;SDS011;14298;50.900;4.648;2024-03-07T08:13:14;21.20;;;14.63;;
26686;SDS011;14298;50.900;4.648;2024-03-07T08:15:44;20.00;;;14.90;;
26686;SDS011;14298;50.900;4.648;2024-03-07T08:18:12;25.47;;;15.43;;
26686;SDS011;14298;50.900;4.648;2024-03-07T08:20:40;18.60;;;14.40;;
26686;SDS011;14298;50.900;4.648;2024-03-07T08:23:10;18.37;;;12.73;;
26686;SDS011;14298;50.900;4.648;2024-03-07T08:25:39;21.57;;;15.73;;
26686;SDS011;14298;50.900;4.648;2024-03-07T08:28:08;31.60;;;16.33;;
26686;SDS011;14298;50.900;4.648;2024-03-07T08:30:36;32.83;;;13.83;;
26686;SDS011;14298;50.900;4.648;2024-03-07T08:33:04;22.83;;;16.03;;
26686;SDS011;14298;50.900;4.648;2024-03-07T08:35:32;25.27;;;12.57;;
26686;SDS011;14298;50.900;4.648;2024-03-07T08:38:00;32.43;;;16.93;;
26686;SDS011;14298;50.900;4.648;2024-03-07T08:40:29;17.23;;;13.77;;
26686;SDS011;14298;50.900;4.648;2024-03-07T08:43:01;21.67;;;12.07;;
26686;SDS011;14298;50.900;4.648;2024-03-07T08:45:31;14.30;;;12.17;;
26686;SDS011;14298;50.900;4.648;2024-03-07T08:48:02;25.00;;;15.50;;
26686;SDS011;14298;50.900;4.648;2024-03-07T08:50:35;20.83;;;14.00;;
26686;SDS011;14298;50.900;4.648;2024-03-07T08:53:04;20.07;;;14.80;;
26686;SDS011;14298;50.900;4.648;2024-03-07T08:55:32;25.00;;;15.43;;
26686;SDS011;14298;50.900;4.648;2024-03-07T08:58:02;20.93;;;13.60;;
26686;SDS011;14298;50.900;4.648;2024-03-07T09:00:30;19.57;;;15.37;;
26686;SDS011;14298;50.900;4.648;2024-03-07T09:02:59;30.30;;;17.03;;
26686;SDS011;14298;50.900;4.648;2024-03-07T09:05:29;17.10;;;12.53;;
26686;SDS011;14298;50.900;4.648;2024-03-07T09:07:59;14.03;;;10.90;;
26686;SDS011;14298;50.900;4.648;2024-03-07T09:10:27;21.83;;;15.43;;
26686;SDS011;14298;50.900;4.648;2024-03-07T09:12:56;24.37;;;15.13;;
26686;SDS011;14298;50.900;4.648;2024-03-07T09:15:24;18.80;;;13.83;;
26686;SDS011;14298;50.900;4.648;2024-03-07T09:17:53;20.60;;;13.67;;
26686;SDS011;14298;50.900;4.648;2024-03-07T09:20:21;24.93;;;13.83;;
26686;SDS011;14298;50.900;4.648;2024-03-07T09:22:50;30.40;;;16.47;;
26686;SDS011;14298;50.900;4.648;2024-03-07T09:25:20;17.90;;;12.00;;
26686;SDS011;14298;50.900;4.648;2024-03-07T09:27:48;18.53;;;11.70;;
26686;SDS011;14298;50.900;4.648;2024-03-07T09:30:16;14.10;;;11.37;;
26686;SDS011;14298;50.900;4.648;2024-03-07T09:32:46;13.10;;;10.90;;
26686;SDS011;14298;50.900;4.648;2024-03-07T09:35:14;16.23;;;8.97;;
26686;SDS011;14298;50.900;4.648;2024-03-07T09:37:43;13.07;;;10.27;;
26686;SDS011;14298;50.900;4.648;2024-03-07T09:40:12;16.37;;;9.77;;
26686;SDS011;14298;50.900;4.648;2024-03-07T09:42:44;14.20;;;9.17;;
26686;SDS011;14298;50.900;4.648;2024-03-07T09:45:14;13.00;;;9.33;;
26686;SDS011;14298;50.900;4.648;2024-03-07T09:47:45;21.87;;;10.20;;
26686;SDS011;14298;50.900;4.648;2024-03-07T09:50:15;12.83;;;8.53;;
26686;SDS011;14298;50.900;4.648;2024-03-07T09:52:45;11.73;;;8.77;;
26686;SDS011;14298;50.900;4.648;2024-03-07T09:55:15;12.70;;;10.13;;
26686;SDS011;14298;50.900;4.648;2024-03-07T09:57:45;15.70;;;9.70;;
26686;SDS011;14298;50.900;4.648;2024-03-07T10:00:15;16.33;;;9.97;;
26686;SDS011;14298;50.900;4.648;2024-03-07T10:02:45;16.47;;;10.40;;
26686;SDS011;14298;50.900;4.648;2024-03-07T10:05:14;19.13;;;8.60;;
26686;SDS011;14298;50.900;4.648;2024-03-07T10:07:44;18.03;;;9.67;;
26686;SDS011;14298;50.900;4.648;2024-03-07T10:10:12;14.27;;;9.87;;
26686;SDS011;14298;50.900;4.648;2024-03-07T10:12:40;16.93;;;8.30;;
26686;SDS011;14298;50.900;4.648;2024-03-07T10:15:10;16.37;;;8.67;;
26686;SDS011;14298;50.900;4.648;2024-03-07T10:17:40;13.87;;;7.90;;
26686;SDS011;14298;50.900;4.648;2024-03-07T10:20:08;13.40;;;7.83;;
26686;SDS011;14298;50.900;4.648;2024-03-07T10:22:40;12.40;;;9.07;;
26686;SDS011;14298;50.900;4.648;2024-03-07T10:25:09;8.27;;;6.30;;
26686;SDS011;14298;50.900;4.648;2024-03-07T10:27:37;16.20;;;9.70;;
26686;SDS011;14298;50.900;4.648;2024-03-07T10:30:05;11.23;;;8.43;;
26686;SDS011;14298;50.900;4.648;2024-03-07T10:32:35;10.87;;;8.80;;
26686;SDS011;14298;50.900;4.648;2024-03-07T10:35:06;10.17;;;9.07;;
26686;SDS011;14298;50.900;4.648;2024-03-07T10:37:34;13.77;;;8.77;;
26686;SDS011;14298;50.900;4.648;2024-03-07T10:40:03;18.87;;;8.50;;
26686;SDS011;14298;50.900;4.648;2024-03-07T10:42:33;9.03;;;6.73;;
26686;SDS011;14298;50.900;4.648;2024-03-07T10:45:03;8.37;;;7.50;;
26686;SDS011;14298;50.900;4.648;2024-03-07T10:47:33;10.53;;;7.33;;
26686;SDS011;14298;50.900;4.648;2024-03-07T10:55:08;16.30;;;8.57;;
26686;SDS011;14298;50.900;4.648;2024-03-07T11:03:07;14.63;;;7.67;;
26686;SDS011;14298;50.900;4.648;2024-03-07T11:05:35;12.90;;;9.13;;
26686;SDS011;14298;50.900;4.648;2024-03-07T11:08:04;11.03;;;8.33;;
26686;SDS011;14298;50.900;4.648;2024-03-07T11:10:34;12.30;;;8.87;;
26686;SDS011;14298;50.900;4.648;2024-03-07T11:13:07;8.80;;;6.73;;
26686;SDS011;14298;50.900;4.648;2024-03-07T11:15:33;10.93;;;8.03;;
26686;SDS011;14298;50.900;4.648;2024-03-07T11:18:01;13.37;;;7.60;;
26686;SDS011;14298;50.900;4.648;2024-03-07T11:20:34;8.93;;;6.33;;
26686;SDS011;14298;50.900;4.648;2024-03-07T11:25:49;9.17;;;7.10;;
26686;SDS011;14298;50.900;4.648;2024-03-07T11:28:18;13.67;;;7.37;;
26686;SDS011;14298;50.900;4.648;2024-03-07T11:30:49;13.83;;;7.03;;
26686;SDS011;14298;50.900;4.648;2024-03-07T11:33:18;8.23;;;7.07;;
26686;SDS011;14298;50.900;4.648;2024-03-07T11:35:50;8.73;;;7.37;;
26686;SDS011;14298;50.900;4.648;2024-03-07T11:38:18;21.10;;;8.53;;
26686;SDS011;14298;50.900;4.648;2024-03-07T11:40:50;7.70;;;6.23;;
26686;SDS011;14298;50.900;4.648;2024-03-07T11:43:18;12.77;;;7.87;;
26686;SDS011;14298;50.900;4.648;2024-03-07T11:45:46;17.37;;;7.90;;
26686;SDS011;14298;50.900;4.648;2024-03-07T11:48:16;13.40;;;7.47;;
26686;SDS011;14298;50.900;4.648;2024-03-07T11:50:45;11.17;;;7.07;;
26686;SDS011;14298;50.900;4.648;2024-03-07T11:53:14;10.80;;;6.37;;
26686;SDS011;14298;50.900;4.648;2024-03-07T11:55:43;12.93;;;6.90;;
26686;SDS011;14298;50.900;4.648;2024-03-07T11:58:13;7.63;;;6.33;;
26686;SDS011;14298;50.900;4.648;2024-03-07T12:00:43;10.00;;;6.67;;
26686;SDS011;14298;50.900;4.648;2024-03-07T12:03:15;10.20;;;7.13;;
26686;SDS011;14298;50.900;4.648;2024-03-07T12:05:47;7.33;;;5.07;;
26686;SDS011;14298;50.900;4.648;2024-03-07T12:08:16;8.17;;;6.17;;
26686;SDS011;14298;50.900;4.648;2024-03-07T12:10:44;12.60;;;6.77;;
26686;SDS011;14298;50.900;4.648;2024-03-07T12:13:12;11.37;;;7.70;;
26686;SDS011;14298;50.900;4.648;2024-03-07T12:15:45;11.90;;;8.57;;
26686;SDS011;14298;50.900;4.648;2024-03-07T12:18:14;8.43;;;7.60;;
26686;SDS011;14298;50.900;4.648;2024-03-07T12:20:44;10.67;;;6.87;;
26686;SDS011;14298;50.900;4.648;2024-03-07T12:23:16;10.73;;;7.93;;
26686;SDS011;14298;50.900;4.648;2024-03-07T12:25:46;11.37;;;8.17;;
26686;SDS011;14298;50.900;4.648;2024-03-07T12:28:14;13.73;;;7.40;;
26686;SDS011;14298;50.900;4.648;2024-03-07T12:33:16;9.33;;;6.63;;
26686;SDS011;14298;50.900;4.648;2024-03-07T12:35:45;7.33;;;5.50;;
26686;SDS011;14298;50.900;4.648;2024-03-07T12:38:14;8.33;;;7.50;;
26686;SDS011;14298;50.900;4.648;2024-03-07T12:40:44;9.73;;;8.53;;
26686;SDS011;14298;50.900;4.648;2024-03-07T12:43:14;16.17;;;8.97;;
26686;SDS011;14298;50.900;4.648;2024-03-07T12:45:44;13.30;;;8.33;;
26686;SDS011;14298;50.900;4.648;2024-03-07T12:48:12;11.87;;;6.60;;
26686;SDS011;14298;50.900;4.648;2024-03-07T12:50:41;11.93;;;7.40;;
26686;SDS011;14298;50.900;4.648;2024-03-07T12:53:09;12.53;;;8.00;;
26686;SDS011;14298;50.900;4.648;2024-03-07T12:55:39;10.80;;;6.70;;
26686;SDS011;14298;50.900;4.648;2024-03-07T12:58:10;10.90;;;7.60;;
26686;SDS011;14298;50.900;4.648;2024-03-07T13:00:41;6.77;;;5.53;;
26686;SDS011;14298;50.900;4.648;2024-03-07T13:03:09;11.23;;;5.63;;
26686;SDS011;14298;50.900;4.648;2024-03-07T13:05:37;10.27;;;5.87;;
26686;SDS011;14298;50.900;4.648;2024-03-07T13:08:10;8.70;;;6.03;;
26686;SDS011;14298;50.900;4.648;2024-03-07T13:10:44;8.67;;;6.37;;
26686;SDS011;14298;50.900;4.648;2024-03-07T13:13:12;10.57;;;5.67;;
26686;SDS011;14298;50.900;4.648;2024-03-07T13:15:40;7.30;;;5.73;;
26686;SDS011;14298;50.900;4.648;2024-03-07T13:18:09;9.40;;;7.80;;
26686;SDS011;14298;50.900;4.648;2024-03-07T13:20:37;10.77;;;7.27;;
26686;SDS011;14298;50.900;4.648;2024-03-07T13:23:05;7.03;;;5.33;;
26686;SDS011;14298;50.900;4.648;2024-03-07T13:25:34;11.33;;;7.07;;
26686;SDS011;14298;50.900;4.648;2024-03-07T13:28:04;6.97;;;5.90;;
26686;SDS011;14298;50.900;4.648;2024-03-07T13:30:34;7.27;;;6.00;;
26686;SDS011;14298;50.900;4.648;2024-03-07T13:33:04;8.27;;;6.40;;
26686;SDS011;14298;50.900;4.648;2024-03-07T13:35:32;6.07;;;5.13;;
26686;SDS011;14298;50.900;4.648;2024-03-07T13:38:00;8.90;;;6.07;;
26686;SDS011;14298;50.900;4.648;2024-03-07T13:40:28;6.73;;;5.13;;
26686;SDS011;14298;50.900;4.648;2024-03-07T13:42:58;7.80;;;5.03;;
26686;SDS011;14298;50.900;4.648;2024-03-07T13:45:27;7.90;;;6.30;;
26686;SDS011;14298;50.900;4.648;2024-03-07T13:47:57;7.43;;;6.47;;
26686;SDS011;14298;50.900;4.648;2024-03-07T13:50:26;11.57;;;5.50;;
26686;SDS011;14298;50.900;4.648;2024-03-07T13:52:56;13.10;;;6.57;;
26686;SDS011;14298;50.900;4.648;2024-03-07T14:00:59;10.30;;;7.23;;
26686;SDS011;14298;50.900;4.648;2024-03-07T14:06:01;9.33;;;7.03;;
26686;SDS011;14298;50.900;4.648;2024-03-07T14:27:27;6.60;;;5.33;;
26686;SDS011;14298;50.900;4.648;2024-03-07T14:32:41;7.40;;;5.63;;
26686;SDS011;14298;50.900;4.648;2024-03-07T14:35:23;6.50;;;5.70;;
26686;SDS011;14298;50.900;4.648;2024-03-07T14:37:54;6.00;;;5.40;;
26686;SDS011;14298;50.900;4.648;2024-03-07T14:40:24;5.77;;;4.67;;
26686;SDS011;14298;50.900;4.648;2024-03-07T14:42:54;9.23;;;5.97;;
26686;SDS011;14298;50.900;4.648;2024-03-07T14:45:29;11.73;;;8.30;;
26686;SDS011;14298;50.900;4.648;2024-03-07T14:47:52;9.43;;;6.13;;
26686;SDS011;14298;50.900;4.648;2024-03-07T14:50:21;8.90;;;6.43;;
26686;SDS011;14298;50.900;4.648;2024-03-07T14:52:50;7.13;;;4.87;;
26686;SDS011;14298;50.900;4.648;2024-03-07T14:55:18;11.33;;;5.23;;
26686;SDS011;14298;50.900;4.648;2024-03-07T14:57:46;10.60;;;6.40;;
26686;SDS011;14298;50.900;4.648;2024-03-07T15:00:14;4.83;;;4.43;;
26686;SDS011;14298;50.900;4.648;2024-03-07T15:02:46;8.67;;;6.23;;
26686;SDS011;14298;50.900;4.648;2024-03-07T15:05:15;6.50;;;5.47;;
26686;SDS011;14298;50.900;4.648;2024-03-07T15:07:50;6.13;;;5.50;;
26686;SDS011;14298;50.900;4.648;2024-03-07T15:10:28;7.57;;;5.87;;
26686;SDS011;14298;50.900;4.648;2024-03-07T15:12:56;7.20;;;4.77;;
26686;SDS011;14298;50.900;4.648;2024-03-07T15:15:24;11.03;;;7.07;;
26686;SDS011;14298;50.900;4.648;2024-03-07T15:17:53;4.47;;;4.00;;
26686;SDS011;14298;50.900;4.648;2024-03-07T15:20:21;5.93;;;4.73;;
26686;SDS011;14298;50.900;4.648;2024-03-07T15:22:53;6.73;;;5.17;;
26686;SDS011;14298;50.900;4.648;2024-03-07T15:25:21;8.60;;;5.00;;
26686;SDS011;14298;50.900;4.648;2024-03-07T15:27:53;5.97;;;4.50;;
26686;SDS011;14298;50.900;4.648;2024-03-07T15:30:24;9.47;;;6.60;;
26686;SDS011;14298;50.900;4.648;2024-03-07T15:32:52;4.73;;;4.07;;
26686;SDS011;14298;50.900;4.648;2024-03-07T15:35:20;8.40;;;4.73;;
26686;SDS011;14298;50.900;4.648;2024-03-07T15:37:50;6.30;;;4.37;;